sensor_id;sensor_type;location;lat;lon;timestamp;P1;durP1;ratioP1;P2;durP2;ratioP2
25023;SDS011;13033;50.936;5.334;2024-02-21T00:00:40;31.95;;;14.18;;
25023;SDS011;13033;50.936;5.334;2024-02-21T00:03:06;35.55;;;15.32;;
25023;SDS011;13033;50.936;5.334;2024-02-21T00:05:32;33.38;;;14.80;;
25023;SDS011;13033;50.936;5.334;2024-02-21T00:07:58;31.88;;;15.00;;
25023;SDS011;13033;50.936;5.334;2024-02-21T00:10:24;40.92;;;14.75;;
25023;SDS011;13033;50.936;5.334;2024-02-21T00:12:50;36.38;;;15.00;;
25023;SDS011;13033;50.936;5.334;2024-02-21T00:15:16;32.22;;;15.05;;
25023;SDS011;13033;50.936;5.334;2024-02-21T00:17:43;38.97;;;14.90;;
25023;SDS011;13033;50.936;5.334;2024-02-21T00:20:09;34.42;;;14.50;;
25023;SDS011;13033;50.936;5.334;2024-02-21T00:22:35;29.90;;;14.32;;
25023;SDS011;13033;50.936;5.334;2024-02-21T00:25:01;37.00;;;14.63;;
25023;SDS011;13033;50.936;5.334;2024-02-21T00:27:27;38.85;;;14.85;;
25023;SDS011;13033;50.936;5.334;2024-02-21T00:29:53;31.65;;;14.10;;
25023;SDS011;13033;50.936;5.334;2024-02-21T00:32:19;28.52;;;14.07;;
25023;SDS011;13033;50.936;5.334;2024-02-21T00:34:44;31.20;;;13.98;;
25023;SDS011;13033;50.936;5.334;2024-02-21T00:37:10;31.55;;;13.50;;
25023;SDS011;13033;50.936;5.334;2024-02-21T00:39:36;30.40;;;12.88;;
25023;SDS011;13033;50.936;5.334;2024-02-21T00:42:02;33.83;;;13.20;;
25023;SDS011;13033;50.936;5.334;2024-02-21T00:44:28;32.80;;;13.50;;
25023;SDS011;13033;50.936;5.334;2024-02-21T00:46:53;30.17;;;13.50;;
25023;SDS011;13033;50.936;5.334;2024-02-21T00:49:19;28.40;;;12.85;;
25023;SDS011;13033;50.936;5.334;2024-02-21T00:51:45;30.85;;;13.30;;
25023;SDS011;13033;50.936;5.334;2024-02-21T00:54:10;26.92;;;11.30;;
25023;SDS011;13033;50.936;5.334;2024-02-21T00:56:36;28.90;;;12.80;;
25023;SDS011;13033;50.936;5.334;2024-02-21T00:59:02;29.52;;;12.02;;
25023;SDS011;13033;50.936;5.334;2024-02-21T01:01:27;32.60;;;13.38;;
25023;SDS011;13033;50.936;5.334;2024-02-21T01:03:53;31.83;;;12.85;;
25023;SDS011;13033;50.936;5.334;2024-02-21T01:06:19;32.33;;;13.13;;
25023;SDS011;13033;50.936;5.334;2024-02-21T01:08:46;27.25;;;11.50;;
25023;SDS011;13033;50.936;5.334;2024-02-21T01:11:13;23.88;;;11.63;;
25023;SDS011;13033;50.936;5.334;2024-02-21T01:13:39;33.35;;;11.48;;
25023;SDS011;13033;50.936;5.334;2024-02-21T01:16:05;22.48;;;10.95;;
25023;SDS011;13033;50.936;5.334;2024-02-21T01:18:32;25.30;;;10.68;;
25023;SDS011;13033;50.936;5.334;2024-02-21T01:20:58;22.13;;;11.13;;
25023;SDS011;13033;50.936;5.334;2024-02-21T01:23:24;26.08;;;10.90;;
25023;SDS011;13033;50.936;5.334;2024-02-21T01:25:50;28.52;;;11.68;;
25023;SDS011;13033;50.936;5.334;2024-02-21T01:28:16;26.27;;;11.15;;
25023;SDS011;13033;50.936;5.334;2024-02-21T01:30:42;29.27;;;11.63;;
25023;SDS011;13033;50.936;5.334;2024-02-21T01:33:07;26.92;;;10.82;;
25023;SDS011;13033;50.936;5.334;2024-02-21T01:35:34;19.23;;;10.48;;
25023;SDS011;13033;50.936;5.334;2024-02-21T01:37:59;27.95;;;11.40;;
25023;SDS011;13033;50.936;5.334;2024-02-21T01:40:25;22.15;;;9.88;;
25023;SDS011;13033;50.936;5.334;2024-02-21T01:42:51;31.52;;;10.95;;
25023;SDS011;13033;50.936;5.334;2024-02-21T01:45:19;22.23;;;10.05;;
25023;SDS011;13033;50.936;5.334;2024-02-21T01:47:45;25.23;;;9.65;;
25023;SDS011;13033;50.936;5.334;2024-02-21T01:50:12;31.27;;;10.88;;
25023;SDS011;13033;50.936;5.334;2024-02-21T01:52:39;26.25;;;9.93;;
25023;SDS011;13033;50.936;5.334;2024-02-21T01:55:06;20.50;;;9.23;;
25023;SDS011;13033;50.936;5.334;2024-02-21T01:57:32;21.80;;;9.52;;
25023;SDS011;13033;50.936;5.334;2024-02-21T01:59:58;20.98;;;8.98;;
25023;SDS011;13033;50.936;5.334;2024-02-21T02:02:24;22.15;;;9.25;;
25023;SDS011;13033;50.936;5.334;2024-02-21T02:04:49;21.23;;;8.93;;
25023;SDS011;13033;50.936;5.334;2024-02-21T02:07:17;27.73;;;10.43;;
25023;SDS011;13033;50.936;5.334;2024-02-21T02:09:43;22.55;;;9.60;;
25023;SDS011;13033;50.936;5.334;2024-02-21T02:12:09;24.83;;;10.30;;
25023;SDS011;13033;50.936;5.334;2024-02-21T02:14:34;29.98;;;10.13;;
25023;SDS011;13033;50.936;5.334;2024-02-21T02:17:00;25.05;;;9.02;;
25023;SDS011;13033;50.936;5.334;2024-02-21T02:19:25;23.15;;;10.13;;
25023;SDS011;13033;50.936;5.334;2024-02-21T02:21:53;25.75;;;10.68;;
25023;SDS011;13033;50.936;5.334;2024-02-21T02:24:25;20.70;;;10.52;;
25023;SDS011;13033;50.936;5.334;2024-02-21T02:26:51;23.83;;;10.18;;
25023;SDS011;13033;50.936;5.334;2024-02-21T02:29:16;25.33;;;9.98;;
25023;SDS011;13033;50.936;5.334;2024-02-21T02:31:42;21.20;;;9.70;;
25023;SDS011;13033;50.936;5.334;2024-02-21T02:34:08;26.65;;;9.52;;
25023;SDS011;13033;50.936;5.334;2024-02-21T02:36:35;21.75;;;9.98;;
25023;SDS011;13033;50.936;5.334;2024-02-21T02:39:01;24.15;;;9.88;;
25023;SDS011;13033;50.936;5.334;2024-02-21T02:41:26;26.40;;;9.93;;
25023;SDS011;13033;50.936;5.334;2024-02-21T02:43:52;26.65;;;9.77;;
25023;SDS011;13033;50.936;5.334;2024-02-21T02:46:18;31.40;;;10.02;;
25023;SDS011;13033;50.936;5.334;2024-02-21T02:48:43;23.52;;;10.15;;
25023;SDS011;13033;50.936;5.334;2024-02-21T02:51:10;22.38;;;9.68;;
25023;SDS011;13033;50.936;5.334;2024-02-21T02:53:35;26.83;;;9.52;;
25023;SDS011;13033;50.936;5.334;2024-02-21T02:56:01;32.88;;;10.00;;
25023;SDS011;13033;50.936;5.334;2024-02-21T02:58:27;20.40;;;9.57;;
25023;SDS011;13033;50.936;5.334;2024-02-21T03:00:53;23.38;;;10.23;;
25023;SDS011;13033;50.936;5.334;2024-02-21T03:03:19;23.17;;;9.98;;
25023;SDS011;13033;50.936;5.334;2024-02-21T03:05:45;27.02;;;10.50;;
25023;SDS011;13033;50.936;5.334;2024-02-21T03:08:11;24.15;;;10.00;;
25023;SDS011;13033;50.936;5.334;2024-02-21T03:10:36;21.23;;;9.60;;
25023;SDS011;13033;50.936;5.334;2024-02-21T03:13:02;25.95;;;10.25;;
25023;SDS011;13033;50.936;5.334;2024-02-21T03:15:28;24.02;;;10.25;;
25023;SDS011;13033;50.936;5.334;2024-02-21T03:17:54;20.30;;;9.68;;
25023;SDS011;13033;50.936;5.334;2024-02-21T03:20:20;23.65;;;10.18;;
25023;SDS011;13033;50.936;5.334;2024-02-21T03:22:45;25.17;;;9.40;;
25023;SDS011;13033;50.936;5.334;2024-02-21T03:25:11;26.83;;;10.55;;
25023;SDS011;13033;50.936;5.334;2024-02-21T03:27:38;26.75;;;9.88;;
25023;SDS011;13033;50.936;5.334;2024-02-21T03:30:04;21.98;;;9.85;;
25023;SDS011;13033;50.936;5.334;2024-02-21T03:32:30;24.67;;;9.68;;
25023;SDS011;13033;50.936;5.334;2024-02-21T03:34:56;22.33;;;9.98;;
25023;SDS011;13033;50.936;5.334;2024-02-21T03:37:21;26.52;;;9.68;;
25023;SDS011;13033;50.936;5.334;2024-02-21T03:39:47;21.15;;;9.98;;
25023;SDS011;13033;50.936;5.334;2024-02-21T03:42:13;20.88;;;10.15;;
25023;SDS011;13033;50.936;5.334;2024-02-21T03:44:40;21.45;;;9.02;;
25023;SDS011;13033;50.936;5.334;2024-02-21T03:47:06;24.02;;;9.25;;
25023;SDS011;13033;50.936;5.334;2024-02-21T03:49:31;23.10;;;10.18;;
25023;SDS011;13033;50.936;5.334;2024-02-21T03:51:57;23.00;;;10.18;;
25023;SDS011;13033;50.936;5.334;2024-02-21T03:54:23;29.38;;;10.20;;
25023;SDS011;13033;50.936;5.334;2024-02-21T03:56:48;21.52;;;9.30;;
25023;SDS011;13033;50.936;5.334;2024-02-21T03:59:14;25.15;;;9.93;;
25023;SDS011;13033;50.936;5.334;2024-02-21T04:01:40;22.45;;;9.10;;
25023;SDS011;13033;50.936;5.334;2024-02-21T04:04:05;29.80;;;10.18;;
25023;SDS011;13033;50.936;5.334;2024-02-21T04:06:31;27.23;;;9.60;;
25023;SDS011;13033;50.936;5.334;2024-02-21T04:08:57;20.45;;;9.43;;
25023;SDS011;13033;50.936;5.334;2024-02-21T04:11:23;20.98;;;9.02;;
25023;SDS011;13033;50.936;5.334;2024-02-21T04:13:49;22.00;;;8.98;;
25023;SDS011;13033;50.936;5.334;2024-02-21T04:16:16;22.75;;;8.80;;
25023;SDS011;13033;50.936;5.334;2024-02-21T04:18:42;25.92;;;9.88;;
25023;SDS011;13033;50.936;5.334;2024-02-21T04:21:08;23.05;;;8.73;;
25023;SDS011;13033;50.936;5.334;2024-02-21T04:23:35;24.60;;;9.30;;
25023;SDS011;13033;50.936;5.334;2024-02-21T04:26:00;19.75;;;8.30;;
25023;SDS011;13033;50.936;5.334;2024-02-21T04:28:26;20.08;;;9.45;;
25023;SDS011;13033;50.936;5.334;2024-02-21T04:30:52;21.83;;;9.05;;
25023;SDS011;13033;50.936;5.334;2024-02-21T04:33:18;24.83;;;8.55;;
25023;SDS011;13033;50.936;5.334;2024-02-21T04:35:43;19.13;;;8.15;;
25023;SDS011;13033;50.936;5.334;2024-02-21T04:38:10;22.88;;;9.73;;
25023;SDS011;13033;50.936;5.334;2024-02-21T04:40:36;19.23;;;9.60;;
25023;SDS011;13033;50.936;5.334;2024-02-21T04:43:01;24.13;;;9.52;;
25023;SDS011;13033;50.936;5.334;2024-02-21T04:45:28;26.00;;;9.40;;
25023;SDS011;13033;50.936;5.334;2024-02-21T04:47:53;23.80;;;8.93;;
25023;SDS011;13033;50.936;5.334;2024-02-21T04:50:19;22.20;;;8.95;;
25023;SDS011;13033;50.936;5.334;2024-02-21T04:52:44;24.70;;;9.07;;
25023;SDS011;13033;50.936;5.334;2024-02-21T04:55:10;23.58;;;9.13;;
25023;SDS011;13033;50.936;5.334;2024-02-21T04:57:36;23.65;;;8.48;;
25023;SDS011;13033;50.936;5.334;2024-02-21T05:00:01;20.55;;;8.57;;
25023;SDS011;13033;50.936;5.334;2024-02-21T05:02:28;26.75;;;8.63;;
25023;SDS011;13033;50.936;5.334;2024-02-21T05:04:55;19.88;;;8.50;;
25023;SDS011;13033;50.936;5.334;2024-02-21T05:07:21;19.17;;;7.63;;
25023;SDS011;13033;50.936;5.334;2024-02-21T05:09:47;22.45;;;8.73;;
25023;SDS011;13033;50.936;5.334;2024-02-21T05:12:12;21.10;;;8.65;;
25023;SDS011;13033;50.936;5.334;2024-02-21T05:14:38;21.67;;;7.80;;
25023;SDS011;13033;50.936;5.334;2024-02-21T05:17:04;23.48;;;8.80;;
25023;SDS011;13033;50.936;5.334;2024-02-21T05:19:30;22.58;;;8.65;;
25023;SDS011;13033;50.936;5.334;2024-02-21T05:21:55;16.13;;;7.78;;
25023;SDS011;13033;50.936;5.334;2024-02-21T05:24:21;19.77;;;8.35;;
25023;SDS011;13033;50.936;5.334;2024-02-21T05:26:47;20.85;;;8.18;;
25023;SDS011;13033;50.936;5.334;2024-02-21T05:29:13;16.27;;;8.48;;
25023;SDS011;13033;50.936;5.334;2024-02-21T05:34:16;18.08;;;7.22;;
25023;SDS011;13033;50.936;5.334;2024-02-21T05:36:45;17.85;;;7.72;;
25023;SDS011;13033;50.936;5.334;2024-02-21T05:39:12;13.75;;;7.82;;
25023;SDS011;13033;50.936;5.334;2024-02-21T05:41:38;14.32;;;7.68;;
25023;SDS011;13033;50.936;5.334;2024-02-21T05:44:04;17.00;;;8.05;;
25023;SDS011;13033;50.936;5.334;2024-02-21T05:46:29;17.08;;;7.93;;
25023;SDS011;13033;50.936;5.334;2024-02-21T05:48:55;18.58;;;8.23;;
25023;SDS011;13033;50.936;5.334;2024-02-21T05:51:21;20.23;;;8.25;;
25023;SDS011;13033;50.936;5.334;2024-02-21T05:53:46;14.80;;;7.55;;
25023;SDS011;13033;50.936;5.334;2024-02-21T05:56:12;16.83;;;8.00;;
25023;SDS011;13033;50.936;5.334;2024-02-21T05:58:39;20.58;;;7.63;;
25023;SDS011;13033;50.936;5.334;2024-02-21T06:01:05;15.25;;;7.38;;
25023;SDS011;13033;50.936;5.334;2024-02-21T06:03:32;15.43;;;7.25;;
25023;SDS011;13033;50.936;5.334;2024-02-21T06:05:58;16.02;;;8.00;;
25023;SDS011;13033;50.936;5.334;2024-02-21T06:08:27;15.70;;;7.28;;
25023;SDS011;13033;50.936;5.334;2024-02-21T06:10:53;14.48;;;7.15;;
25023;SDS011;13033;50.936;5.334;2024-02-21T06:13:23;17.95;;;8.00;;
25023;SDS011;13033;50.936;5.334;2024-02-21T06:15:49;15.55;;;7.32;;
25023;SDS011;13033;50.936;5.334;2024-02-21T06:18:16;13.27;;;7.28;;
25023;SDS011;13033;50.936;5.334;2024-02-21T06:20:43;13.88;;;7.80;;
25023;SDS011;13033;50.936;5.334;2024-02-21T06:23:09;16.73;;;7.75;;
25023;SDS011;13033;50.936;5.334;2024-02-21T06:25:36;17.48;;;8.45;;
25023;SDS011;13033;50.936;5.334;2024-02-21T06:28:01;16.95;;;8.68;;
25023;SDS011;13033;50.936;5.334;2024-02-21T06:30:27;22.80;;;8.50;;
25023;SDS011;13033;50.936;5.334;2024-02-21T06:32:53;18.35;;;9.15;;
25023;SDS011;13033;50.936;5.334;2024-02-21T06:35:21;25.05;;;9.80;;
25023;SDS011;13033;50.936;5.334;2024-02-21T06:37:47;21.00;;;10.23;;
25023;SDS011;13033;50.936;5.334;2024-02-21T06:40:16;18.38;;;9.75;;
25023;SDS011;13033;50.936;5.334;2024-02-21T06:42:42;19.55;;;9.50;;
25023;SDS011;13033;50.936;5.334;2024-02-21T06:45:08;26.30;;;9.98;;
25023;SDS011;13033;50.936;5.334;2024-02-21T06:47:33;21.92;;;9.73;;
25023;SDS011;13033;50.936;5.334;2024-02-21T06:49:59;19.88;;;8.82;;
25023;SDS011;13033;50.936;5.334;2024-02-21T06:52:25;21.67;;;6.90;;
25023;SDS011;13033;50.936;5.334;2024-02-21T06:54:51;21.45;;;7.43;;
25023;SDS011;13033;50.936;5.334;2024-02-21T06:57:17;26.05;;;9.40;;
25023;SDS011;13033;50.936;5.334;2024-02-21T06:59:43;21.10;;;8.52;;
25023;SDS011;13033;50.936;5.334;2024-02-21T07:02:09;22.65;;;9.90;;
25023;SDS011;13033;50.936;5.334;2024-02-21T07:04:34;22.30;;;9.63;;
25023;SDS011;13033;50.936;5.334;2024-02-21T07:07:00;19.80;;;8.73;;
25023;SDS011;13033;50.936;5.334;2024-02-21T07:09:26;20.38;;;9.02;;
25023;SDS011;13033;50.936;5.334;2024-02-21T07:11:53;25.58;;;9.38;;
25023;SDS011;13033;50.936;5.334;2024-02-21T07:14:19;21.08;;;9.70;;
25023;SDS011;13033;50.936;5.334;2024-02-21T07:16:45;20.60;;;9.55;;
25023;SDS011;13033;50.936;5.334;2024-02-21T07:19:10;18.83;;;9.00;;
25023;SDS011;13033;50.936;5.334;2024-02-21T07:21:36;24.70;;;9.60;;
25023;SDS011;13033;50.936;5.334;2024-02-21T07:24:07;23.92;;;8.93;;
25023;SDS011;13033;50.936;5.334;2024-02-21T07:26:33;21.08;;;8.85;;
25023;SDS011;13033;50.936;5.334;2024-02-21T07:28:58;26.52;;;9.18;;
25023;SDS011;13033;50.936;5.334;2024-02-21T07:31:24;22.40;;;9.30;;
25023;SDS011;13033;50.936;5.334;2024-02-21T07:33:50;22.85;;;8.50;;
25023;SDS011;13033;50.936;5.334;2024-02-21T07:36:23;22.88;;;10.02;;
25023;SDS011;13033;50.936;5.334;2024-02-21T07:38:53;22.23;;;9.32;;
25023;SDS011;13033;50.936;5.334;2024-02-21T07:41:19;13.50;;;7.30;;
25023;SDS011;13033;50.936;5.334;2024-02-21T07:43:44;19.08;;;7.97;;
25023;SDS011;13033;50.936;5.334;2024-02-21T07:46:10;26.92;;;9.60;;
25023;SDS011;13033;50.936;5.334;2024-02-21T07:48:35;23.48;;;9.70;;
25023;SDS011;13033;50.936;5.334;2024-02-21T07:51:01;22.02;;;8.43;;
25023;SDS011;13033;50.936;5.334;2024-02-21T07:53:27;16.42;;;6.55;;
25023;SDS011;13033;50.936;5.334;2024-02-21T07:55:53;20.23;;;9.10;;
25023;SDS011;13033;50.936;5.334;2024-02-21T07:58:19;14.80;;;7.90;;
25023;SDS011;13033;50.936;5.334;2024-02-21T08:00:44;21.50;;;8.50;;
25023;SDS011;13033;50.936;5.334;2024-02-21T08:03:10;20.17;;;8.60;;
25023;SDS011;13033;50.936;5.334;2024-02-21T08:05:35;19.48;;;7.68;;
25023;SDS011;13033;50.936;5.334;2024-02-21T08:08:02;19.33;;;7.93;;
25023;SDS011;13033;50.936;5.334;2024-02-21T08:10:28;14.98;;;7.65;;
25023;SDS011;13033;50.936;5.334;2024-02-21T08:12:54;16.55;;;7.25;;
25023;SDS011;13033;50.936;5.334;2024-02-21T08:15:20;14.27;;;7.00;;
25023;SDS011;13033;50.936;5.334;2024-02-21T08:17:49;17.40;;;7.10;;
25023;SDS011;13033;50.936;5.334;2024-02-21T08:20:15;11.77;;;5.63;;
25023;SDS011;13033;50.936;5.334;2024-02-21T08:22:40;15.43;;;6.70;;
25023;SDS011;13033;50.936;5.334;2024-02-21T08:25:06;15.30;;;6.70;;
25023;SDS011;13033;50.936;5.334;2024-02-21T08:27:32;17.58;;;6.45;;
25023;SDS011;13033;50.936;5.334;2024-02-21T08:29:58;11.82;;;6.05;;
25023;SDS011;13033;50.936;5.334;2024-02-21T08:32:23;13.75;;;6.03;;
25023;SDS011;13033;50.936;5.334;2024-02-21T08:34:49;13.93;;;6.05;;
25023;SDS011;13033;50.936;5.334;2024-02-21T08:37:15;15.52;;;5.53;;
25023;SDS011;13033;50.936;5.334;2024-02-21T08:39:40;16.30;;;5.57;;
25023;SDS011;13033;50.936;5.334;2024-02-21T08:42:06;16.23;;;6.10;;
25023;SDS011;13033;50.936;5.334;2024-02-21T08:44:32;15.55;;;6.80;;
25023;SDS011;13033;50.936;5.334;2024-02-21T08:46:57;18.65;;;5.70;;
25023;SDS011;13033;50.936;5.334;2024-02-21T08:49:23;14.65;;;5.57;;
25023;SDS011;13033;50.936;5.334;2024-02-21T08:51:52;15.70;;;6.18;;
25023;SDS011;13033;50.936;5.334;2024-02-21T08:54:18;11.02;;;5.40;;
25023;SDS011;13033;50.936;5.334;2024-02-21T08:56:43;16.23;;;5.80;;
25023;SDS011;13033;50.936;5.334;2024-02-21T08:59:09;15.18;;;5.00;;
25023;SDS011;13033;50.936;5.334;2024-02-21T09:01:34;13.40;;;5.05;;
25023;SDS011;13033;50.936;5.334;2024-02-21T09:04:00;13.95;;;5.45;;
25023;SDS011;13033;50.936;5.334;2024-02-21T09:06:27;11.98;;;5.20;;
25023;SDS011;13033;50.936;5.334;2024-02-21T09:08:55;14.57;;;5.32;;
25023;SDS011;13033;50.936;5.334;2024-02-21T09:11:22;14.68;;;5.00;;
25023;SDS011;13033;50.936;5.334;2024-02-21T09:13:48;12.65;;;4.95;;
25023;SDS011;13033;50.936;5.334;2024-02-21T09:16:13;9.20;;;4.43;;
25023;SDS011;13033;50.936;5.334;2024-02-21T09:18:39;16.00;;;5.43;;
25023;SDS011;13033;50.936;5.334;2024-02-21T09:21:04;14.07;;;4.40;;
25023;SDS011;13033;50.936;5.334;2024-02-21T09:23:30;12.98;;;5.03;;
25023;SDS011;13033;50.936;5.334;2024-02-21T09:25:56;12.32;;;4.57;;
25023;SDS011;13033;50.936;5.334;2024-02-21T09:28:23;10.38;;;5.15;;
25023;SDS011;13033;50.936;5.334;2024-02-21T09:30:48;14.80;;;5.25;;
25023;SDS011;13033;50.936;5.334;2024-02-21T09:33:14;14.35;;;5.13;;
25023;SDS011;13033;50.936;5.334;2024-02-21T09:35:40;14.07;;;5.13;;
25023;SDS011;13033;50.936;5.334;2024-02-21T09:38:05;11.25;;;5.15;;
25023;SDS011;13033;50.936;5.334;2024-02-21T09:40:31;14.45;;;5.55;;
25023;SDS011;13033;50.936;5.334;2024-02-21T09:43:06;13.50;;;5.30;;
25023;SDS011;13033;50.936;5.334;2024-02-21T09:45:32;13.10;;;4.50;;
25023;SDS011;13033;50.936;5.334;2024-02-21T09:50:44;16.05;;;5.55;;
25023;SDS011;13033;50.936;5.334;2024-02-21T09:53:12;14.68;;;5.18;;
25023;SDS011;13033;50.936;5.334;2024-02-21T09:55:39;13.40;;;4.88;;
25023;SDS011;13033;50.936;5.334;2024-02-21T09:58:07;10.70;;;4.97;;
25023;SDS011;13033;50.936;5.334;2024-02-21T10:00:33;12.68;;;5.75;;
25023;SDS011;13033;50.936;5.334;2024-02-21T10:03:00;11.00;;;4.70;;
25023;SDS011;13033;50.936;5.334;2024-02-21T10:05:25;15.95;;;5.20;;
25023;SDS011;13033;50.936;5.334;2024-02-21T10:07:52;16.65;;;5.72;;
25023;SDS011;13033;50.936;5.334;2024-02-21T10:10:19;12.82;;;5.63;;
25023;SDS011;13033;50.936;5.334;2024-02-21T10:12:50;14.15;;;5.30;;
25023;SDS011;13033;50.936;5.334;2024-02-21T10:15:19;16.25;;;5.40;;
25023;SDS011;13033;50.936;5.334;2024-02-21T10:17:47;11.95;;;4.85;;
25023;SDS011;13033;50.936;5.334;2024-02-21T10:20:12;10.68;;;4.82;;
25023;SDS011;13033;50.936;5.334;2024-02-21T10:22:40;13.70;;;5.30;;
25023;SDS011;13033;50.936;5.334;2024-02-21T10:25:09;9.50;;;5.00;;
25023;SDS011;13033;50.936;5.334;2024-02-21T10:27:36;20.20;;;5.68;;
25023;SDS011;13033;50.936;5.334;2024-02-21T10:30:02;8.45;;;3.92;;
25023;SDS011;13033;50.936;5.334;2024-02-21T10:32:32;13.93;;;5.35;;
25023;SDS011;13033;50.936;5.334;2024-02-21T10:35:01;13.90;;;5.03;;
25023;SDS011;13033;50.936;5.334;2024-02-21T10:37:29;10.87;;;4.77;;
25023;SDS011;13033;50.936;5.334;2024-02-21T10:39:56;10.50;;;4.82;;
25023;SDS011;13033;50.936;5.334;2024-02-21T10:42:22;11.23;;;4.20;;
25023;SDS011;13033;50.936;5.334;2024-02-21T10:44:52;10.68;;;4.68;;
25023;SDS011;13033;50.936;5.334;2024-02-21T10:47:20;9.95;;;5.00;;
25023;SDS011;13033;50.936;5.334;2024-02-21T10:49:49;14.07;;;4.95;;
25023;SDS011;13033;50.936;5.334;2024-02-21T10:55:21;15.30;;;5.20;;
25023;SDS011;13033;50.936;5.334;2024-02-21T10:57:57;14.07;;;5.35;;
25023;SDS011;13033;50.936;5.334;2024-02-21T11:00:23;11.40;;;4.75;;
25023;SDS011;13033;50.936;5.334;2024-02-21T11:02:55;13.65;;;4.20;;
25023;SDS011;13033;50.936;5.334;2024-02-21T11:05:25;11.63;;;4.70;;
25023;SDS011;13033;50.936;5.334;2024-02-21T11:07:52;9.98;;;4.55;;
25023;SDS011;13033;50.936;5.334;2024-02-21T11:10:25;10.00;;;4.68;;
25023;SDS011;13033;50.936;5.334;2024-02-21T11:13:09;10.20;;;4.32;;
25023;SDS011;13033;50.936;5.334;2024-02-21T11:15:36;9.43;;;4.88;;
25023;SDS011;13033;50.936;5.334;2024-02-21T11:18:01;8.05;;;4.32;;
25023;SDS011;13033;50.936;5.334;2024-02-21T11:20:33;10.02;;;4.35;;
25023;SDS011;13033;50.936;5.334;2024-02-21T11:23:00;13.70;;;5.03;;
25023;SDS011;13033;50.936;5.334;2024-02-21T11:25:26;13.18;;;5.07;;
25023;SDS011;13033;50.936;5.334;2024-02-21T11:28:00;10.70;;;5.15;;
25023;SDS011;13033;50.936;5.334;2024-02-21T11:30:29;12.35;;;4.90;;
25023;SDS011;13033;50.936;5.334;2024-02-21T11:33:02;11.93;;;4.70;;
25023;SDS011;13033;50.936;5.334;2024-02-21T11:35:32;14.10;;;4.90;;
25023;SDS011;13033;50.936;5.334;2024-02-21T11:38:12;14.05;;;4.70;;
25023;SDS011;13033;50.936;5.334;2024-02-21T11:40:40;12.13;;;5.25;;
25023;SDS011;13033;50.936;5.334;2024-02-21T11:43:07;12.15;;;4.75;;
25023;SDS011;13033;50.936;5.334;2024-02-21T11:45:33;10.23;;;4.95;;
25023;SDS011;13033;50.936;5.334;2024-02-21T11:47:59;11.80;;;5.13;;
25023;SDS011;13033;50.936;5.334;2024-02-21T11:50:28;12.75;;;4.80;;
25023;SDS011;13033;50.936;5.334;2024-02-21T11:52:54;10.55;;;4.60;;
25023;SDS011;13033;50.936;5.334;2024-02-21T11:55:20;9.68;;;4.60;;
25023;SDS011;13033;50.936;5.334;2024-02-21T11:57:50;8.57;;;4.70;;
25023;SDS011;13033;50.936;5.334;2024-02-21T12:00:16;8.27;;;4.50;;
25023;SDS011;13033;50.936;5.334;2024-02-21T12:02:45;11.38;;;4.28;;
25023;SDS011;13033;50.936;5.334;2024-02-21T12:05:10;14.18;;;4.32;;
25023;SDS011;13033;50.936;5.334;2024-02-21T12:07:37;9.15;;;3.40;;
25023;SDS011;13033;50.936;5.334;2024-02-21T12:10:09;8.50;;;3.10;;
25023;SDS011;13033;50.936;5.334;2024-02-21T12:12:36;9.80;;;3.70;;
25023;SDS011;13033;50.936;5.334;2024-02-21T12:15:03;8.60;;;3.72;;
25023;SDS011;13033;50.936;5.334;2024-02-21T12:17:33;7.18;;;3.30;;
25023;SDS011;13033;50.936;5.334;2024-02-21T12:20:04;8.80;;;3.22;;
25023;SDS011;13033;50.936;5.334;2024-02-21T12:22:34;6.80;;;3.33;;
25023;SDS011;13033;50.936;5.334;2024-02-21T12:25:03;12.82;;;3.40;;
25023;SDS011;13033;50.936;5.334;2024-02-21T12:27:45;10.63;;;2.97;;
25023;SDS011;13033;50.936;5.334;2024-02-21T12:30:11;8.25;;;2.90;;
25023;SDS011;13033;50.936;5.334;2024-02-21T12:32:37;11.10;;;3.58;;
25023;SDS011;13033;50.936;5.334;2024-02-21T12:35:03;8.88;;;3.05;;
25023;SDS011;13033;50.936;5.334;2024-02-21T12:37:29;11.02;;;2.95;;
25023;SDS011;13033;50.936;5.334;2024-02-21T12:39:54;9.73;;;3.38;;
25023;SDS011;13033;50.936;5.334;2024-02-21T12:42:20;6.05;;;2.60;;
25023;SDS011;13033;50.936;5.334;2024-02-21T12:44:46;6.55;;;2.70;;
25023;SDS011;13033;50.936;5.334;2024-02-21T12:47:11;8.85;;;3.22;;
25023;SDS011;13033;50.936;5.334;2024-02-21T12:49:37;7.18;;;2.50;;
25023;SDS011;13033;50.936;5.334;2024-02-21T12:52:03;7.82;;;2.67;;
25023;SDS011;13033;50.936;5.334;2024-02-21T12:54:29;7.25;;;2.83;;
25023;SDS011;13033;50.936;5.334;2024-02-21T12:56:56;9.05;;;3.13;;
25023;SDS011;13033;50.936;5.334;2024-02-21T12:59:21;11.02;;;3.15;;
25023;SDS011;13033;50.936;5.334;2024-02-21T13:01:47;9.70;;;2.80;;
25023;SDS011;13033;50.936;5.334;2024-02-21T13:04:13;11.52;;;3.05;;
25023;SDS011;13033;50.936;5.334;2024-02-21T13:06:39;12.48;;;2.55;;
25023;SDS011;13033;50.936;5.334;2024-02-21T13:09:05;7.38;;;2.70;;
25023;SDS011;13033;50.936;5.334;2024-02-21T13:11:34;10.40;;;2.45;;
25023;SDS011;13033;50.936;5.334;2024-02-21T13:14:00;5.72;;;2.38;;
25023;SDS011;13033;50.936;5.334;2024-02-21T13:16:25;7.50;;;2.60;;
25023;SDS011;13033;50.936;5.334;2024-02-21T13:18:52;4.28;;;2.50;;
25023;SDS011;13033;50.936;5.334;2024-02-21T13:21:17;6.88;;;2.67;;
25023;SDS011;13033;50.936;5.334;2024-02-21T13:23:43;10.02;;;3.08;;
25023;SDS011;13033;50.936;5.334;2024-02-21T13:26:09;8.70;;;2.83;;
25023;SDS011;13033;50.936;5.334;2024-02-21T13:28:35;7.55;;;2.50;;
25023;SDS011;13033;50.936;5.334;2024-02-21T13:31:01;5.50;;;2.60;;
25023;SDS011;13033;50.936;5.334;2024-02-21T13:33:28;5.85;;;2.40;;
25023;SDS011;13033;50.936;5.334;2024-02-21T13:35:54;7.25;;;2.53;;
25023;SDS011;13033;50.936;5.334;2024-02-21T13:38:19;5.10;;;2.60;;
25023;SDS011;13033;50.936;5.334;2024-02-21T13:40:45;4.10;;;2.30;;
25023;SDS011;13033;50.936;5.334;2024-02-21T13:43:11;6.20;;;2.08;;
25023;SDS011;13033;50.936;5.334;2024-02-21T13:45:37;7.40;;;2.88;;
25023;SDS011;13033;50.936;5.334;2024-02-21T13:48:03;8.27;;;2.53;;
25023;SDS011;13033;50.936;5.334;2024-02-21T13:50:31;6.75;;;2.65;;
25023;SDS011;13033;50.936;5.334;2024-02-21T13:52:57;8.10;;;2.58;;
25023;SDS011;13033;50.936;5.334;2024-02-21T13:55:23;3.25;;;1.77;;
25023;SDS011;13033;50.936;5.334;2024-02-21T13:57:51;9.52;;;2.80;;
25023;SDS011;13033;50.936;5.334;2024-02-21T14:00:17;6.40;;;2.90;;
25023;SDS011;13033;50.936;5.334;2024-02-21T14:02:43;6.20;;;2.80;;
25023;SDS011;13033;50.936;5.334;2024-02-21T14:05:09;6.20;;;2.70;;
25023;SDS011;13033;50.936;5.334;2024-02-21T14:07:35;5.45;;;2.05;;
25023;SDS011;13033;50.936;5.334;2024-02-21T14:10:01;5.32;;;2.40;;
25023;SDS011;13033;50.936;5.334;2024-02-21T14:12:28;6.97;;;2.60;;
25023;SDS011;13033;50.936;5.334;2024-02-21T14:14:54;6.18;;;2.35;;
25023;SDS011;13033;50.936;5.334;2024-02-21T14:17:23;6.45;;;2.40;;
25023;SDS011;13033;50.936;5.334;2024-02-21T14:19:49;3.65;;;2.15;;
25023;SDS011;13033;50.936;5.334;2024-02-21T14:22:16;5.72;;;2.38;;
25023;SDS011;13033;50.936;5.334;2024-02-21T14:24:42;8.45;;;2.53;;
25023;SDS011;13033;50.936;5.334;2024-02-21T14:27:08;6.00;;;2.17;;
25023;SDS011;13033;50.936;5.334;2024-02-21T14:29:34;6.47;;;2.38;;
25023;SDS011;13033;50.936;5.334;2024-02-21T14:31:59;7.50;;;2.42;;
25023;SDS011;13033;50.936;5.334;2024-02-21T14:34:25;7.00;;;2.10;;
25023;SDS011;13033;50.936;5.334;2024-02-21T14:36:51;6.03;;;2.83;;